AUA47A LOWW-LOWI
Flight info
| Callsign | AUA47A |
|---|---|
| Flight time | N/A |
| Altitude | 30000 |
| Route | SOVIL2B/16 SOVIL DCT SITNI DCT BAGSI DCT NANIT NANIT2A |
| Aircraft | A320/M-SDE3FGHIRWY/LB1 |
Departure
| Time | 2026-05-06 18:52 |
|---|---|
| Airport | Vienna International Airport (LOWW) |
Arrival
| Time | N/A |
|---|---|
| Airport | Innsbruck Airport (LOWI) |
| Time | Latitude | Longitude | Altitude | Speed | Heading |
|---|---|---|---|---|---|
| 2026-05-06 18:21 | 48.11842 | 16.56936 | 602 ft | 0 kts | 197° |
| 2026-05-06 18:44 | 48.11853 | 16.56941 | 601 ft | 3 kts | 197° |
| 2026-05-06 18:44 | 48.11870 | 16.56947 | 601 ft | 3 kts | 189° |
| 2026-05-06 18:44 | 48.11886 | 16.56954 | 600 ft | 3 kts | 200° |
| 2026-05-06 18:44 | 48.11903 | 16.56964 | 600 ft | 3 kts | 204° |
| 2026-05-06 18:45 | 48.11919 | 16.56975 | 600 ft | 3 kts | 204° |
| 2026-05-06 18:45 | 48.11935 | 16.56986 | 599 ft | 3 kts | 194° |
| 2026-05-06 18:45 | 48.11952 | 16.56987 | 599 ft | 2 kts | 132° |
| 2026-05-06 18:45 | 48.11955 | 16.56982 | 599 ft | 0 kts | 115° |
| 2026-05-06 18:47 | 48.11947 | 16.57009 | 599 ft | 15 kts | 116° |
| 2026-05-06 18:47 | 48.11899 | 16.57140 | 600 ft | 0 kts | 118° |
| 2026-05-06 18:48 | 48.11892 | 16.57158 | 601 ft | 7 kts | 120° |
| 2026-05-06 18:48 | 48.11842 | 16.57258 | 602 ft | 17 kts | 122° |
| 2026-05-06 18:48 | 48.11815 | 16.57440 | 602 ft | 19 kts | 77° |
| 2026-05-06 18:49 | 48.11822 | 16.57486 | 602 ft | 0 kts | 76° |
| 2026-05-06 18:49 | 48.11823 | 16.57489 | 602 ft | 2 kts | 76° |
| 2026-05-06 18:49 | 48.11843 | 16.57593 | 603 ft | 17 kts | 72° |
| 2026-05-06 18:50 | 48.11852 | 16.57638 | 603 ft | 0 kts | 72° |
| 2026-05-06 18:51 | 48.11861 | 16.57697 | 603 ft | 24 kts | 81° |
| 2026-05-06 18:51 | 48.11763 | 16.57910 | 603 ft | 26 kts | 149° |
| 2026-05-06 18:51 | 48.11589 | 16.57986 | 610 ft | 37 kts | 166° |
| 2026-05-06 18:51 | 48.11109 | 16.58181 | 612 ft | 103 kts | 164° |
| 2026-05-06 18:52 | 48.10246 | 16.58545 | 617 ft | 152 kts | 166° |
| 2026-05-06 18:52 | 48.09228 | 16.58950 | 1172 ft | 148 kts | 166° |
| 2026-05-06 18:52 | 48.08232 | 16.59381 | 1801 ft | 151 kts | 170° |
| 2026-05-06 18:52 | 48.07202 | 16.59821 | 2365 ft | 159 kts | 171° |
| 2026-05-06 18:53 | 48.06079 | 16.60231 | 2739 ft | 172 kts | 179° |
| 2026-05-06 18:53 | 48.04896 | 16.59767 | 2900 ft | 194 kts | 220° |
| 2026-05-06 18:53 | 48.04067 | 16.58023 | 3276 ft | 221 kts | 240° |
| 2026-05-06 18:53 | 48.03404 | 16.55877 | 3813 ft | 238 kts | 241° |
| 2026-05-06 18:54 | 48.02652 | 16.53671 | 4714 ft | 239 kts | 235° |
| 2026-05-06 18:54 | 48.01693 | 16.51626 | 5569 ft | 242 kts | 231° |
| 2026-05-06 18:54 | 48.00714 | 16.49557 | 6379 ft | 248 kts | 242° |
| 2026-05-06 18:54 | 48.00312 | 16.47016 | 7150 ft | 260 kts | 265° |
| 2026-05-06 18:55 | 48.00402 | 16.44291 | 7935 ft | 265 kts | 269° |
| 2026-05-06 18:55 | 48.00525 | 16.41528 | 8762 ft | 269 kts | 269° |
| 2026-05-06 18:55 | 48.00656 | 16.38718 | 9571 ft | 273 kts | 270° |
| 2026-05-06 18:55 | 48.00787 | 16.35864 | 10276 ft | 280 kts | 270° |
| 2026-05-06 18:56 | 48.00921 | 16.32841 | 10525 ft | 303 kts | 271° |
| 2026-05-06 18:56 | 48.01061 | 16.29605 | 10875 ft | 320 kts | 271° |
| 2026-05-06 18:56 | 48.01205 | 16.26244 | 11489 ft | 328 kts | 271° |
| 2026-05-06 18:56 | 48.01351 | 16.22825 | 12184 ft | 332 kts | 271° |
| 2026-05-06 18:57 | 48.01500 | 16.19350 | 12894 ft | 337 kts | 271° |
| 2026-05-06 18:57 | 48.01646 | 16.15878 | 13550 ft | 341 kts | 271° |
| 2026-05-06 18:57 | 48.01794 | 16.12327 | 14182 ft | 344 kts | 270° |
| 2026-05-06 18:57 | 48.01945 | 16.08736 | 14813 ft | 347 kts | 270° |
| 2026-05-06 18:58 | 48.02095 | 16.05129 | 15465 ft | 349 kts | 270° |
| 2026-05-06 18:58 | 48.02243 | 16.01491 | 16123 ft | 351 kts | 270° |
| 2026-05-06 18:58 | 48.02388 | 15.97837 | 16769 ft | 354 kts | 270° |
| 2026-05-06 18:58 | 48.02533 | 15.94158 | 17420 ft | 356 kts | 269° |
| 2026-05-06 18:59 | 48.02678 | 15.90456 | 18070 ft | 358 kts | 269° |
| 2026-05-06 18:59 | 48.02823 | 15.86737 | 18686 ft | 359 kts | 269° |
| 2026-05-06 18:59 | 48.02968 | 15.83006 | 19245 ft | 361 kts | 269° |
| 2026-05-06 18:59 | 48.03115 | 15.79235 | 19794 ft | 364 kts | 269° |
| 2026-05-06 19:00 | 48.03260 | 15.75449 | 20332 ft | 367 kts | 269° |
| 2026-05-06 19:00 | 48.03405 | 15.71630 | 20858 ft | 369 kts | 269° |
| 2026-05-06 19:00 | 48.03550 | 15.67794 | 21414 ft | 371 kts | 269° |
| 2026-05-06 19:00 | 48.03645 | 15.65236 | 21751 ft | 373 kts | 268° |
| 2026-05-06 19:01 | 48.03837 | 15.60027 | 22440 ft | 378 kts | 268° |
| 2026-05-06 19:01 | 48.03980 | 15.56086 | 22929 ft | 381 kts | 268° |
| 2026-05-06 19:01 | 48.04123 | 15.52118 | 23402 ft | 384 kts | 268° |
| 2026-05-06 19:01 | 48.04267 | 15.48129 | 23845 ft | 386 kts | 268° |
| 2026-05-06 19:02 | 48.04408 | 15.44178 | 24309 ft | 386 kts | 269° |
| 2026-05-06 19:02 | 48.04547 | 15.40171 | 24776 ft | 386 kts | 269° |
| 2026-05-06 19:02 | 48.04679 | 15.36156 | 25200 ft | 388 kts | 268° |
| 2026-05-06 19:02 | 48.04775 | 15.32116 | 25582 ft | 390 kts | 268° |
| 2026-05-06 19:03 | 48.04842 | 15.28062 | 25968 ft | 391 kts | 267° |
| 2026-05-06 19:03 | 48.04899 | 15.23984 | 26369 ft | 393 kts | 267° |
| 2026-05-06 19:03 | 48.04949 | 15.19899 | 26735 ft | 394 kts | 267° |
| 2026-05-06 19:03 | 48.04999 | 15.15797 | 27106 ft | 395 kts | 267° |
| 2026-05-06 19:04 | 48.05053 | 15.11676 | 27464 ft | 397 kts | 267° |
| 2026-05-06 19:04 | 48.05109 | 15.07530 | 27824 ft | 399 kts | 267° |
| 2026-05-06 19:04 | 48.05165 | 15.03377 | 28220 ft | 400 kts | 266° |
| 2026-05-06 19:04 | 48.05223 | 14.99218 | 28586 ft | 401 kts | 266° |
| 2026-05-06 19:05 | 48.05281 | 14.95046 | 28924 ft | 403 kts | 266° |
| 2026-05-06 19:05 | 48.05339 | 14.90850 | 29263 ft | 404 kts | 266° |
| 2026-05-06 19:05 | 48.05394 | 14.86646 | 29586 ft | 405 kts | 266° |
| 2026-05-06 19:05 | 48.05444 | 14.82483 | 29712 ft | 402 kts | 266° |
| 2026-05-06 19:06 | 48.05489 | 14.78391 | 29721 ft | 387 kts | 265° |
| 2026-05-06 19:06 | 48.05552 | 14.70463 | 29721 ft | 379 kts | 265° |
| 2026-05-06 19:07 | 48.05599 | 14.62579 | 29717 ft | 378 kts | 265° |
| 2026-05-06 19:07 | 48.05652 | 14.54757 | 29729 ft | 372 kts | 265° |
| 2026-05-06 19:08 | 48.05697 | 14.47096 | 29740 ft | 371 kts | 265° |
| 2026-05-06 19:08 | 48.05735 | 14.39393 | 29743 ft | 370 kts | 265° |
| 2026-05-06 19:09 | 48.05699 | 14.31720 | 29745 ft | 366 kts | 259° |
| 2026-05-06 19:09 | 48.04329 | 14.24537 | 29746 ft | 357 kts | 241° |
| 2026-05-06 19:10 | 48.02118 | 14.17884 | 29744 ft | 357 kts | 242° |
| 2026-05-06 19:10 | 47.99909 | 14.11219 | 29765 ft | 357 kts | 242° |
| 2026-05-06 19:11 | 47.97719 | 14.04614 | 29731 ft | 357 kts | 242° |
| 2026-05-06 19:11 | 47.95509 | 13.97971 | 29756 ft | 357 kts | 242° |
| 2026-05-06 19:12 | 47.93285 | 13.91336 | 29747 ft | 357 kts | 241° |
| 2026-05-06 19:12 | 47.91063 | 13.84699 | 29746 ft | 357 kts | 242° |
| 2026-05-06 19:13 | 47.88847 | 13.78075 | 29712 ft | 357 kts | 242° |
| 2026-05-06 19:13 | 47.87748 | 13.74797 | 29217 ft | 349 kts | 242° |
| 2026-05-06 19:13 | 47.86671 | 13.71589 | 28737 ft | 345 kts | 241° |
| 2026-05-06 19:13 | 47.85602 | 13.68411 | 28263 ft | 342 kts | 241° |
| 2026-05-06 19:14 | 47.84552 | 13.65300 | 27815 ft | 339 kts | 241° |
| 2026-05-06 19:14 | 47.83494 | 13.62172 | 27417 ft | 338 kts | 242° |
| 2026-05-06 19:14 | 47.82433 | 13.59050 | 26977 ft | 339 kts | 241° |
| 2026-05-06 19:14 | 47.81374 | 13.55930 | 26540 ft | 336 kts | 241° |
| 2026-05-06 19:15 | 47.80324 | 13.52833 | 26096 ft | 334 kts | 241° |
| 2026-05-06 19:15 | 47.79631 | 13.50792 | 25822 ft | 333 kts | 241° |
| 2026-05-06 19:15 | 47.78587 | 13.47717 | 25379 ft | 332 kts | 241° |
| 2026-05-06 19:15 | 47.77197 | 13.43624 | 24807 ft | 330 kts | 241° |
| 2026-05-06 19:16 | 47.76510 | 13.41603 | 24539 ft | 330 kts | 241° |
| 2026-05-06 19:16 | 47.75138 | 13.37574 | 23970 ft | 328 kts | 241° |
| 2026-05-06 19:16 | 47.74440 | 13.35534 | 23687 ft | 327 kts | 241° |
| 2026-05-06 19:16 | 47.73409 | 13.32530 | 23247 ft | 326 kts | 240° |
| 2026-05-06 19:17 | 47.72380 | 13.29533 | 22752 ft | 325 kts | 240° |
| 2026-05-06 19:17 | 47.71370 | 13.26585 | 22273 ft | 324 kts | 240° |
| 2026-05-06 19:17 | 47.70352 | 13.23614 | 21797 ft | 323 kts | 241° |
| 2026-05-06 19:17 | 47.69337 | 13.20647 | 21343 ft | 322 kts | 241° |
| 2026-05-06 19:18 | 47.68323 | 13.17684 | 20881 ft | 321 kts | 240° |
| 2026-05-06 19:18 | 47.67310 | 13.14739 | 20420 ft | 320 kts | 240° |
| 2026-05-06 19:18 | 47.66297 | 13.11803 | 19971 ft | 319 kts | 240° |
| 2026-05-06 19:18 | 47.65284 | 13.08877 | 19550 ft | 318 kts | 240° |
| 2026-05-06 19:19 | 47.64274 | 13.05961 | 19120 ft | 317 kts | 240° |
| 2026-05-06 19:19 | 47.63268 | 13.03053 | 18686 ft | 316 kts | 240° |
| 2026-05-06 19:19 | 47.62266 | 13.00152 | 18265 ft | 316 kts | 240° |
| 2026-05-06 19:19 | 47.61267 | 12.97261 | 17794 ft | 315 kts | 240° |
| 2026-05-06 19:20 | 47.60267 | 12.94377 | 17310 ft | 314 kts | 240° |
| 2026-05-06 19:20 | 47.59271 | 12.91506 | 16917 ft | 311 kts | 240° |
| 2026-05-06 19:20 | 47.58298 | 12.88699 | 16852 ft | 299 kts | 240° |
| 2026-05-06 19:20 | 47.57516 | 12.85926 | 16854 ft | 287 kts | 256° |
| 2026-05-06 19:21 | 47.57351 | 12.83031 | 16863 ft | 277 kts | 264° |
| 2026-05-06 19:21 | 47.57316 | 12.80252 | 16864 ft | 266 kts | 264° |
| 2026-05-06 19:21 | 47.57295 | 12.77530 | 16869 ft | 264 kts | 265° |
| 2026-05-06 19:21 | 47.57282 | 12.74812 | 16865 ft | 264 kts | 265° |
| 2026-05-06 19:22 | 47.57275 | 12.72075 | 16620 ft | 269 kts | 265° |
| 2026-05-06 19:22 | 47.57263 | 12.69281 | 16190 ft | 273 kts | 265° |
| 2026-05-06 19:22 | 47.57245 | 12.66457 | 15747 ft | 276 kts | 265° |
| 2026-05-06 19:22 | 47.57215 | 12.63616 | 15321 ft | 276 kts | 265° |
| 2026-05-06 19:23 | 47.57181 | 12.60815 | 14914 ft | 275 kts | 265° |
| 2026-05-06 19:23 | 47.57143 | 12.57973 | 14498 ft | 277 kts | 264° |
| 2026-05-06 19:23 | 47.57099 | 12.55108 | 14089 ft | 279 kts | 264° |
| 2026-05-06 19:23 | 47.57061 | 12.52250 | 13861 ft | 273 kts | 265° |
| 2026-05-06 19:24 | 47.57026 | 12.49495 | 13848 ft | 261 kts | 264° |
| 2026-05-06 19:24 | 47.57001 | 12.46854 | 13860 ft | 254 kts | 265° |
| 2026-05-06 19:24 | 47.56970 | 12.44249 | 13862 ft | 251 kts | 264° |
| 2026-05-06 19:24 | 47.56937 | 12.41655 | 13858 ft | 252 kts | 264° |
| 2026-05-06 19:25 | 47.56907 | 12.39059 | 13868 ft | 252 kts | 264° |
| 2026-05-06 19:25 | 47.56880 | 12.36464 | 13860 ft | 252 kts | 265° |
| 2026-05-06 19:25 | 47.56857 | 12.33861 | 13860 ft | 252 kts | 264° |
| 2026-05-06 19:25 | 47.56833 | 12.31302 | 13858 ft | 252 kts | 265° |
| 2026-05-06 19:26 | 47.56799 | 12.28717 | 13859 ft | 251 kts | 264° |
| 2026-05-06 19:26 | 47.56758 | 12.26136 | 13855 ft | 251 kts | 265° |
| 2026-05-06 19:26 | 47.56723 | 12.23547 | 13853 ft | 252 kts | 264° |
| 2026-05-06 19:26 | 47.56700 | 12.20956 | 13854 ft | 252 kts | 264° |
| 2026-05-06 19:27 | 47.56673 | 12.18364 | 13852 ft | 251 kts | 265° |
| 2026-05-06 19:27 | 47.56643 | 12.15783 | 13853 ft | 251 kts | 264° |
| 2026-05-06 19:27 | 47.56617 | 12.13195 | 13853 ft | 251 kts | 264° |
| 2026-05-06 19:27 | 47.56592 | 12.10603 | 13853 ft | 251 kts | 264° |
| 2026-05-06 19:28 | 47.56566 | 12.08016 | 13846 ft | 252 kts | 264° |
| 2026-05-06 19:28 | 47.56538 | 12.05426 | 13850 ft | 252 kts | 264° |
| 2026-05-06 19:28 | 47.56510 | 12.02830 | 13848 ft | 252 kts | 264° |
| 2026-05-06 19:28 | 47.56482 | 12.00241 | 13847 ft | 252 kts | 264° |
| 2026-05-06 19:29 | 47.56458 | 11.97687 | 13844 ft | 252 kts | 264° |
| 2026-05-06 19:29 | 47.56432 | 11.95090 | 13849 ft | 252 kts | 264° |
| 2026-05-06 19:29 | 47.56400 | 11.92511 | 13855 ft | 250 kts | 264° |
| 2026-05-06 19:29 | 47.56369 | 11.89925 | 13847 ft | 251 kts | 264° |
| 2026-05-06 19:30 | 47.56340 | 11.87339 | 13850 ft | 251 kts | 264° |
| 2026-05-06 19:30 | 47.56304 | 11.84751 | 13855 ft | 251 kts | 262° |
| 2026-05-06 19:30 | 47.56152 | 11.82185 | 13849 ft | 250 kts | 259° |
| 2026-05-06 19:30 | 47.55966 | 11.79628 | 13852 ft | 250 kts | 259° |
| 2026-05-06 19:31 | 47.55771 | 11.77062 | 13860 ft | 250 kts | 259° |
| 2026-05-06 19:31 | 47.55570 | 11.74497 | 13849 ft | 251 kts | 259° |
| 2026-05-06 19:31 | 47.55163 | 11.69360 | 13846 ft | 251 kts | 259° |
| 2026-05-06 19:32 | 47.54959 | 11.66787 | 13852 ft | 251 kts | 259° |
| 2026-05-06 19:32 | 47.54755 | 11.64219 | 13853 ft | 252 kts | 259° |
| 2026-05-06 19:32 | 47.54556 | 11.61651 | 13842 ft | 252 kts | 259° |
| 2026-05-06 19:32 | 47.54354 | 11.59040 | 13844 ft | 267 kts | 259° |
| 2026-05-06 19:33 | 47.54113 | 11.56153 | 13843 ft | 297 kts | 259° |
| 2026-05-06 19:33 | 47.53846 | 11.53097 | 13837 ft | 295 kts | 259° |
| 2026-05-06 19:33 | 47.53599 | 11.50121 | 13842 ft | 289 kts | 259° |
| 2026-05-06 19:33 | 47.53359 | 11.47215 | 13837 ft | 286 kts | 259° |
| 2026-05-06 19:34 | 47.53111 | 11.44285 | 13844 ft | 286 kts | 259° |
| 2026-05-06 19:34 | 47.52862 | 11.41353 | 13685 ft | 288 kts | 259° |
| 2026-05-06 19:34 | 47.52614 | 11.38428 | 13421 ft | 285 kts | 259° |
| 2026-05-06 19:34 | 47.52363 | 11.35527 | 13152 ft | 283 kts | 259° |
| 2026-05-06 19:35 | 47.52107 | 11.32634 | 12919 ft | 284 kts | 259° |
| 2026-05-06 19:35 | 47.51849 | 11.29738 | 12830 ft | 284 kts | 259° |
| 2026-05-06 19:35 | 47.51587 | 11.26840 | 12841 ft | 284 kts | 259° |
| 2026-05-06 19:35 | 47.51324 | 11.23944 | 12861 ft | 284 kts | 259° |
| 2026-05-06 19:36 | 47.51058 | 11.21047 | 12858 ft | 285 kts | 259° |
| 2026-05-06 19:36 | 47.50794 | 11.18143 | 12852 ft | 285 kts | 259° |
| 2026-05-06 19:36 | 47.50527 | 11.15245 | 12844 ft | 285 kts | 259° |
| 2026-05-06 19:36 | 47.50257 | 11.12344 | 12847 ft | 284 kts | 259° |
| 2026-05-06 19:37 | 47.49992 | 11.09449 | 12846 ft | 284 kts | 259° |
| 2026-05-06 19:37 | 47.49727 | 11.06551 | 12866 ft | 284 kts | 259° |
| 2026-05-06 19:37 | 47.49463 | 11.03656 | 12859 ft | 284 kts | 259° |
| 2026-05-06 19:37 | 47.49196 | 11.00757 | 12864 ft | 284 kts | 259° |
| 2026-05-06 19:38 | 47.48929 | 10.97861 | 12864 ft | 284 kts | 259° |
| 2026-05-06 19:38 | 47.48662 | 10.94974 | 12860 ft | 283 kts | 259° |
| 2026-05-06 19:38 | 47.48408 | 10.92117 | 12865 ft | 284 kts | 259° |
| 2026-05-06 19:38 | 47.48151 | 10.89222 | 12882 ft | 284 kts | 259° |
| 2026-05-06 19:39 | 47.47887 | 10.86314 | 12882 ft | 286 kts | 259° |
| 2026-05-06 19:39 | 47.47622 | 10.83396 | 12881 ft | 286 kts | 259° |
| 2026-05-06 19:39 | 47.47360 | 10.80483 | 12882 ft | 286 kts | 259° |
| 2026-05-06 19:39 | 47.47100 | 10.77559 | 12733 ft | 284 kts | 259° |
| 2026-05-06 19:40 | 47.46854 | 10.74662 | 12559 ft | 285 kts | 259° |
| 2026-05-06 19:40 | 47.46600 | 10.71758 | 12382 ft | 285 kts | 259° |
| 2026-05-06 19:40 | 47.46337 | 10.68860 | 12197 ft | 284 kts | 258° |
| 2026-05-06 19:40 | 47.45789 | 10.66095 | 11908 ft | 279 kts | 239° |
| 2026-05-06 19:41 | 47.44591 | 10.63883 | 11628 ft | 276 kts | 218° |
| 2026-05-06 19:41 | 47.42914 | 10.62551 | 11347 ft | 275 kts | 196° |
| 2026-05-06 19:41 | 47.41012 | 10.62295 | 11069 ft | 279 kts | 174° |
| 2026-05-06 19:41 | 47.39166 | 10.63183 | 10777 ft | 282 kts | 151° |
| 2026-05-06 19:42 | 47.37695 | 10.65101 | 10600 ft | 286 kts | 132° |
| 2026-05-06 19:42 | 47.36432 | 10.67378 | 10584 ft | 287 kts | 132° |
| 2026-05-06 19:42 | 47.35168 | 10.69650 | 10562 ft | 284 kts | 132° |
| 2026-05-06 19:42 | 47.33942 | 10.71852 | 10559 ft | 272 kts | 133° |
| 2026-05-06 19:43 | 47.32753 | 10.73984 | 10560 ft | 268 kts | 133° |
| 2026-05-06 19:43 | 47.31585 | 10.76076 | 10560 ft | 256 kts | 133° |
| 2026-05-06 19:43 | 47.30587 | 10.78087 | 10560 ft | 242 kts | 122° |
| 2026-05-06 19:43 | 47.29915 | 10.80359 | 10507 ft | 244 kts | 110° |
| 2026-05-06 19:44 | 47.29615 | 10.82879 | 10091 ft | 247 kts | 93° |
| 2026-05-06 19:44 | 47.29692 | 10.85350 | 9821 ft | 243 kts | 88° |
| 2026-05-06 19:44 | 47.29799 | 10.87797 | 9489 ft | 236 kts | 89° |
| 2026-05-06 19:44 | 47.29892 | 10.90152 | 9162 ft | 225 kts | 89° |
| 2026-05-06 19:45 | 47.29980 | 10.92404 | 8855 ft | 216 kts | 89° |
| 2026-05-06 19:45 | 47.30062 | 10.94588 | 8555 ft | 212 kts | 89° |
| 2026-05-06 19:45 | 47.30140 | 10.96748 | 8259 ft | 210 kts | 90° |
| 2026-05-06 19:45 | 47.30217 | 10.98896 | 7903 ft | 208 kts | 89° |
| 2026-05-06 19:46 | 47.30292 | 11.01018 | 7584 ft | 207 kts | 88° |
| 2026-05-06 19:46 | 47.30368 | 11.03136 | 7200 ft | 207 kts | 88° |
| 2026-05-06 19:46 | 47.30399 | 11.05242 | 6841 ft | 205 kts | 99° |
| 2026-05-06 19:46 | 47.29990 | 11.07217 | 6494 ft | 199 kts | 112° |
| 2026-05-06 19:47 | 47.29467 | 11.09070 | 6168 ft | 192 kts | 113° |
| 2026-05-06 19:47 | 47.28943 | 11.10858 | 5824 ft | 188 kts | 113° |
| 2026-05-06 19:47 | 47.28428 | 11.12609 | 5484 ft | 185 kts | 113° |
| 2026-05-06 19:47 | 47.27927 | 11.14311 | 5148 ft | 176 kts | 112° |
| 2026-05-06 19:48 | 47.27458 | 11.15901 | 4851 ft | 162 kts | 114° |
| 2026-05-06 19:48 | 47.27021 | 11.17387 | 4581 ft | 155 kts | 114° |
| 2026-05-06 19:48 | 47.26587 | 11.18865 | 4307 ft | 159 kts | 114° |
| 2026-05-06 19:48 | 47.26147 | 11.20356 | 4027 ft | 160 kts | 112° |
| 2026-05-06 19:49 | 47.25701 | 11.21876 | 3684 ft | 164 kts | 112° |
| 2026-05-06 19:49 | 47.25340 | 11.23465 | 3329 ft | 163 kts | 102° |
| 2026-05-06 19:49 | 47.25219 | 11.25102 | 3053 ft | 157 kts | 90° |
| 2026-05-06 19:49 | 47.25270 | 11.26685 | 2832 ft | 156 kts | 86° |
| 2026-05-06 19:50 | 47.25374 | 11.28260 | 2585 ft | 153 kts | 87° |
| 2026-05-06 19:50 | 47.25531 | 11.29778 | 2427 ft | 150 kts | 83° |
| 2026-05-06 19:50 | 47.25700 | 11.31309 | 2189 ft | 149 kts | 86° |
| 2026-05-06 19:50 | 47.25859 | 11.32796 | 1981 ft | 144 kts | 85° |
| 2026-05-06 19:51 | 47.26009 | 11.34195 | 1901 ft | 127 kts | 91° |
| 2026-05-06 19:51 | 47.26078 | 11.35305 | 1907 ft | 107 kts | 70° |